sensor_id;sensor_type;location;lat;lon;timestamp;pressure;altitude;pressure_sealevel;temperature;humidity
76132;BME280;64877;50.994;13.650;2023-05-14T00:02:09;99979.41;;;11.79;75.73
76132;BME280;64877;50.994;13.650;2023-05-14T00:04:34;99983.91;;;11.68;76.49
76132;BME280;64877;50.994;13.650;2023-05-14T00:07:00;99975.28;;;11.62;76.14
76132;BME280;64877;50.994;13.650;2023-05-14T00:09:25;99978.47;;;11.56;76.64
76132;BME280;64877;50.994;13.650;2023-05-14T00:11:51;99971.59;;;11.63;76.83
76132;BME280;64877;50.994;13.650;2023-05-14T00:14:16;99966.56;;;11.59;77.13
76132;BME280;64877;50.994;13.650;2023-05-14T00:16:42;99964.75;;;11.71;76.26
76132;BME280;64877;50.994;13.650;2023-05-14T00:19:07;99963.03;;;11.70;76.56
76132;BME280;64877;50.994;13.650;2023-05-14T00:21:33;99962.16;;;11.69;75.61
76132;BME280;64877;50.994;13.650;2023-05-14T00:23:58;99953.22;;;11.80;75.25
76132;BME280;64877;50.994;13.650;2023-05-14T00:26:23;99953.84;;;11.83;75.50
76132;BME280;64877;50.994;13.650;2023-05-14T00:28:49;99949.50;;;11.81;75.22
76132;BME280;64877;50.994;13.650;2023-05-14T00:31:14;99947.22;;;11.87;74.83
76132;BME280;64877;50.994;13.650;2023-05-14T00:33:40;99949.50;;;11.81;74.76
76132;BME280;64877;50.994;13.650;2023-05-14T00:36:06;99947.47;;;11.96;74.05
76132;BME280;64877;50.994;13.650;2023-05-14T00:38:32;99944.81;;;11.72;75.89
76132;BME280;64877;50.994;13.650;2023-05-14T00:40:57;99945.63;;;11.85;76.08
76132;BME280;64877;50.994;13.650;2023-05-14T00:43:22;99938.50;;;11.84;75.85
76132;BME280;64877;50.994;13.650;2023-05-14T00:45:51;99933.00;;;11.73;76.28
76132;BME280;64877;50.994;13.650;2023-05-14T00:48:17;99940.16;;;11.74;76.51
76132;BME280;64877;50.994;13.650;2023-05-14T00:50:43;99930.47;;;11.82;75.79
76132;BME280;64877;50.994;13.650;2023-05-14T00:53:09;99939.09;;;11.87;75.61
76132;BME280;64877;50.994;13.650;2023-05-14T00:55:40;99932.59;;;12.01;75.26
76132;BME280;64877;50.994;13.650;2023-05-14T00:58:10;99936.28;;;12.00;75.09
76132;BME280;64877;50.994;13.650;2023-05-14T01:00:37;99930.16;;;12.09;74.47
76132;BME280;64877;50.994;13.650;2023-05-14T01:03:03;99940.50;;;12.04;75.33
76132;BME280;64877;50.994;13.650;2023-05-14T01:05:42;99937.66;;;12.17;74.32
76132;BME280;64877;50.994;13.650;2023-05-14T01:16:18;99928.16;;;12.23;74.82
76132;BME280;64877;50.994;13.650;2023-05-14T01:18:45;99929.66;;;12.27;74.20
76132;BME280;64877;50.994;13.650;2023-05-14T01:23:54;99930.50;;;12.27;74.91
76132;BME280;64877;50.994;13.650;2023-05-14T01:26:20;99928.56;;;12.29;74.80
76132;BME280;64877;50.994;13.650;2023-05-14T01:28:47;99931.13;;;12.31;74.58
76132;BME280;64877;50.994;13.650;2023-05-14T01:31:17;99934.44;;;12.23;75.38
76132;BME280;64877;50.994;13.650;2023-05-14T01:33:49;99941.22;;;12.18;74.95
76132;BME280;64877;50.994;13.650;2023-05-14T01:36:16;99932.59;;;12.12;74.72
76132;BME280;64877;50.994;13.650;2023-05-14T01:38:42;99932.88;;;12.09;75.42
76132;BME280;64877;50.994;13.650;2023-05-14T01:41:10;99935.31;;;12.01;75.57
76132;BME280;64877;50.994;13.650;2023-05-14T01:43:37;99923.97;;;12.07;75.20
76132;BME280;64877;50.994;13.650;2023-05-14T01:46:03;99921.53;;;12.15;75.15
76132;BME280;64877;50.994;13.650;2023-05-14T01:48:29;99923.88;;;12.20;75.13
76132;BME280;64877;50.994;13.650;2023-05-14T01:50:54;99923.50;;;12.25;74.99
76132;BME280;64877;50.994;13.650;2023-05-14T01:53:19;99920.31;;;12.20;75.31
76132;BME280;64877;50.994;13.650;2023-05-14T01:55:45;99917.84;;;12.05;75.86
76132;BME280;64877;50.994;13.650;2023-05-14T01:58:10;99914.50;;;12.13;75.72
76132;BME280;64877;50.994;13.650;2023-05-14T02:00:36;99922.25;;;12.06;75.90
76132;BME280;64877;50.994;13.650;2023-05-14T02:03:02;99918.09;;;12.13;75.28
76132;BME280;64877;50.994;13.650;2023-05-14T02:05:27;99923.38;;;12.15;75.41
76132;BME280;64877;50.994;13.650;2023-05-14T02:07:53;99930.25;;;11.97;75.89
76132;BME280;64877;50.994;13.650;2023-05-14T02:10:18;99928.66;;;11.94;75.94
76132;BME280;64877;50.994;13.650;2023-05-14T02:12:44;99918.44;;;11.86;76.38
76132;BME280;64877;50.994;13.650;2023-05-14T02:15:09;99930.28;;;11.73;76.67
76132;BME280;64877;50.994;13.650;2023-05-14T02:17:35;99927.34;;;11.64;77.13
76132;BME280;64877;50.994;13.650;2023-05-14T02:20:00;99921.81;;;11.66;76.82
76132;BME280;64877;50.994;13.650;2023-05-14T02:22:26;99917.47;;;11.63;76.79
76132;BME280;64877;50.994;13.650;2023-05-14T02:24:51;99923.72;;;11.53;77.38
76132;BME280;64877;50.994;13.650;2023-05-14T02:27:17;99919.66;;;11.47;77.41
76132;BME280;64877;50.994;13.650;2023-05-14T02:29:42;99912.75;;;11.43;77.69
76132;BME280;64877;50.994;13.650;2023-05-14T02:32:07;99916.94;;;11.36;77.91
76132;BME280;64877;50.994;13.650;2023-05-14T02:34:33;99915.94;;;11.37;77.69
76132;BME280;64877;50.994;13.650;2023-05-14T02:36:58;99914.84;;;11.39;77.84
76132;BME280;64877;50.994;13.650;2023-05-14T02:39:24;99921.47;;;11.35;77.26
76132;BME280;64877;50.994;13.650;2023-05-14T02:41:49;99915.47;;;11.43;77.08
76132;BME280;64877;50.994;13.650;2023-05-14T02:44:15;99925.22;;;11.22;77.30
76132;BME280;64877;50.994;13.650;2023-05-14T02:46:40;99919.44;;;11.15;77.57
76132;BME280;64877;50.994;13.650;2023-05-14T02:49:05;99918.84;;;11.23;77.69
76132;BME280;64877;50.994;13.650;2023-05-14T02:51:31;99923.34;;;11.11;77.99
76132;BME280;64877;50.994;13.650;2023-05-14T02:53:56;99911.91;;;11.07;77.54
76132;BME280;64877;50.994;13.650;2023-05-14T02:56:21;99914.59;;;11.07;77.68
76132;BME280;64877;50.994;13.650;2023-05-14T02:58:47;99916.34;;;10.84;78.42
76132;BME280;64877;50.994;13.650;2023-05-14T03:01:12;99909.84;;;10.87;77.83
76132;BME280;64877;50.994;13.650;2023-05-14T03:03:39;99911.34;;;10.91;78.03
76132;BME280;64877;50.994;13.650;2023-05-14T03:06:04;99908.16;;;10.73;78.79
76132;BME280;64877;50.994;13.650;2023-05-14T03:08:30;99905.50;;;10.60;78.84
76132;BME280;64877;50.994;13.650;2023-05-14T03:10:55;99909.44;;;10.44;79.13
76132;BME280;64877;50.994;13.650;2023-05-14T03:13:20;99908.69;;;10.42;79.49
76132;BME280;64877;50.994;13.650;2023-05-14T03:15:46;99906.19;;;10.51;78.79
76132;BME280;64877;50.994;13.650;2023-05-14T03:18:12;99911.06;;;10.46;78.59
76132;BME280;64877;50.994;13.650;2023-05-14T03:20:38;99910.53;;;10.41;79.22
76132;BME280;64877;50.994;13.650;2023-05-14T03:23:03;99912.31;;;10.53;78.21
76132;BME280;64877;50.994;13.650;2023-05-14T03:25:29;99920.72;;;10.61;77.21
76132;BME280;64877;50.994;13.650;2023-05-14T03:27:54;99911.00;;;10.59;77.52
76132;BME280;64877;50.994;13.650;2023-05-14T03:30:20;99909.75;;;10.52;78.22
76132;BME280;64877;50.994;13.650;2023-05-14T03:32:45;99918.44;;;10.44;78.46
76132;BME280;64877;50.994;13.650;2023-05-14T03:35:11;99908.28;;;10.35;78.64
76132;BME280;64877;50.994;13.650;2023-05-14T03:37:36;99905.47;;;10.24;79.32
76132;BME280;64877;50.994;13.650;2023-05-14T03:40:01;99911.94;;;10.34;78.23
76132;BME280;64877;50.994;13.650;2023-05-14T03:42:27;99907.22;;;10.25;78.81
76132;BME280;64877;50.994;13.650;2023-05-14T03:44:52;99897.38;;;10.24;79.22
76132;BME280;64877;50.994;13.650;2023-05-14T03:47:17;99898.81;;;10.29;78.90
76132;BME280;64877;50.994;13.650;2023-05-14T03:49:43;99898.69;;;10.31;79.09
76132;BME280;64877;50.994;13.650;2023-05-14T03:52:08;99895.41;;;10.39;78.39
76132;BME280;64877;50.994;13.650;2023-05-14T03:54:34;99900.06;;;10.37;77.99
76132;BME280;64877;50.994;13.650;2023-05-14T03:56:59;99897.03;;;10.41;78.02
76132;BME280;64877;50.994;13.650;2023-05-14T03:59:26;99888.53;;;10.58;77.67
76132;BME280;64877;50.994;13.650;2023-05-14T04:01:51;99895.88;;;10.69;76.44
76132;BME280;64877;50.994;13.650;2023-05-14T04:04:16;99885.56;;;10.50;76.96
76132;BME280;64877;50.994;13.650;2023-05-14T04:06:42;99889.25;;;10.49;76.86
76132;BME280;64877;50.994;13.650;2023-05-14T04:09:07;99885.22;;;10.79;75.82
76132;BME280;64877;50.994;13.650;2023-05-14T04:11:34;99886.81;;;10.57;76.69
76132;BME280;64877;50.994;13.650;2023-05-14T04:14:00;99879.25;;;10.63;76.33
76132;BME280;64877;50.994;13.650;2023-05-14T04:16:25;99888.97;;;10.65;77.11
76132;BME280;64877;50.994;13.650;2023-05-14T04:18:50;99885.16;;;10.92;75.95
76132;BME280;64877;50.994;13.650;2023-05-14T04:21:16;99897.31;;;11.10;75.57
76132;BME280;64877;50.994;13.650;2023-05-14T04:23:41;99889.03;;;11.00;75.98
76132;BME280;64877;50.994;13.650;2023-05-14T04:26:06;99887.38;;;11.22;75.58
76132;BME280;64877;50.994;13.650;2023-05-14T04:28:32;99883.47;;;11.26;75.08
76132;BME280;64877;50.994;13.650;2023-05-14T04:30:57;99878.53;;;11.20;75.20
76132;BME280;64877;50.994;13.650;2023-05-14T04:33:22;99870.97;;;11.47;74.80
76132;BME280;64877;50.994;13.650;2023-05-14T04:35:48;99879.50;;;11.65;73.93
76132;BME280;64877;50.994;13.650;2023-05-14T04:38:13;99869.81;;;11.74;73.57
76132;BME280;64877;50.994;13.650;2023-05-14T04:40:39;99870.53;;;11.76;73.61
76132;BME280;64877;50.994;13.650;2023-05-14T04:43:06;99868.13;;;11.84;72.81
76132;BME280;64877;50.994;13.650;2023-05-14T04:45:32;99858.78;;;11.99;71.85
76132;BME280;64877;50.994;13.650;2023-05-14T04:47:57;99865.91;;;12.11;71.16
76132;BME280;64877;50.994;13.650;2023-05-14T04:50:23;99860.25;;;12.26;71.08
76132;BME280;64877;50.994;13.650;2023-05-14T04:52:48;99853.22;;;12.23;70.95
76132;BME280;64877;50.994;13.650;2023-05-14T04:55:13;99850.34;;;12.47;70.77
76132;BME280;64877;50.994;13.650;2023-05-14T04:57:39;99854.97;;;12.79;69.83
76132;BME280;64877;50.994;13.650;2023-05-14T05:00:05;99845.00;;;13.00;68.15
76132;BME280;64877;50.994;13.650;2023-05-14T05:02:32;99852.69;;;13.48;67.25
76132;BME280;64877;50.994;13.650;2023-05-14T05:04:58;99852.31;;;13.20;67.77
76132;BME280;64877;50.994;13.650;2023-05-14T05:07:24;99852.28;;;13.00;68.06
76132;BME280;64877;50.994;13.650;2023-05-14T05:09:49;99846.00;;;12.99;68.49
76132;BME280;64877;50.994;13.650;2023-05-14T05:12:15;99850.84;;;13.28;68.19
76132;BME280;64877;50.994;13.650;2023-05-14T05:14:40;99854.53;;;13.48;66.68
76132;BME280;64877;50.994;13.650;2023-05-14T05:17:05;99842.25;;;13.74;66.35
76132;BME280;64877;50.994;13.650;2023-05-14T05:19:31;99841.59;;;14.22;64.52
76132;BME280;64877;50.994;13.650;2023-05-14T05:21:56;99837.22;;;14.40;64.21
76132;BME280;64877;50.994;13.650;2023-05-14T05:24:22;99837.38;;;14.39;64.47
76132;BME280;64877;50.994;13.650;2023-05-14T05:26:47;99836.00;;;14.54;63.83
76132;BME280;64877;50.994;13.650;2023-05-14T05:29:14;99833.47;;;14.82;62.57
76132;BME280;64877;50.994;13.650;2023-05-14T05:31:40;99836.91;;;15.22;61.59
76132;BME280;64877;50.994;13.650;2023-05-14T05:34:05;99827.72;;;15.43;60.58
76132;BME280;64877;50.994;13.650;2023-05-14T05:36:31;99828.00;;;15.40;60.52
76132;BME280;64877;50.994;13.650;2023-05-14T05:38:56;99822.31;;;15.90;58.89
76132;BME280;64877;50.994;13.650;2023-05-14T05:41:22;99815.72;;;16.20;58.92
76132;BME280;64877;50.994;13.650;2023-05-14T05:43:47;99819.97;;;16.32;57.37
76132;BME280;64877;50.994;13.650;2023-05-14T05:46:12;99818.16;;;16.68;56.92
76132;BME280;64877;50.994;13.650;2023-05-14T05:48:38;99816.53;;;16.75;56.46
76132;BME280;64877;50.994;13.650;2023-05-14T05:51:03;99810.66;;;16.98;55.52
76132;BME280;64877;50.994;13.650;2023-05-14T05:53:29;99814.16;;;17.52;55.42
76132;BME280;64877;50.994;13.650;2023-05-14T05:55:54;99812.56;;;17.41;54.41
76132;BME280;64877;50.994;13.650;2023-05-14T05:58:19;99804.97;;;18.13;53.20
76132;BME280;64877;50.994;13.650;2023-05-14T06:00:45;99818.44;;;18.49;52.24
76132;BME280;64877;50.994;13.650;2023-05-14T06:03:13;99814.47;;;18.85;51.57
76132;BME280;64877;50.994;13.650;2023-05-14T06:05:39;99810.03;;;19.42;50.04
76132;BME280;64877;50.994;13.650;2023-05-14T06:08:05;99812.25;;;19.38;49.54
76132;BME280;64877;50.994;13.650;2023-05-14T06:10:30;99811.94;;;19.66;48.64
76132;BME280;64877;50.994;13.650;2023-05-14T06:12:56;99803.53;;;19.67;48.19
76132;BME280;64877;50.994;13.650;2023-05-14T06:15:21;99805.75;;;19.63;48.86
76132;BME280;64877;50.994;13.650;2023-05-14T06:17:47;99805.56;;;19.49;48.62
76132;BME280;64877;50.994;13.650;2023-05-14T06:20:13;99811.44;;;19.29;48.75
76132;BME280;64877;50.994;13.650;2023-05-14T06:22:38;99814.69;;;19.25;48.92
76132;BME280;64877;50.994;13.650;2023-05-14T06:25:04;99799.28;;;19.40;49.06
76132;BME280;64877;50.994;13.650;2023-05-14T06:27:29;99805.44;;;19.50;48.33
76132;BME280;64877;50.994;13.650;2023-05-14T06:29:55;99796.53;;;20.20;47.61
76132;BME280;64877;50.994;13.650;2023-05-14T06:32:20;99803.59;;;20.14;47.71
76132;BME280;64877;50.994;13.650;2023-05-14T06:34:46;99793.50;;;20.46;47.38
76132;BME280;64877;50.994;13.650;2023-05-14T06:37:11;99796.00;;;20.64;46.73
76132;BME280;64877;50.994;13.650;2023-05-14T06:39:37;99789.31;;;20.89;46.36
76132;BME280;64877;50.994;13.650;2023-05-14T06:42:03;99793.59;;;21.15;46.28
76132;BME280;64877;50.994;13.650;2023-05-14T06:44:28;99785.72;;;21.35;45.00
76132;BME280;64877;50.994;13.650;2023-05-14T06:46:54;99784.69;;;21.28;45.35
76132;BME280;64877;50.994;13.650;2023-05-14T06:49:19;99787.91;;;21.39;45.11
76132;BME280;64877;50.994;13.650;2023-05-14T06:51:45;99790.44;;;21.79;44.55
76132;BME280;64877;50.994;13.650;2023-05-14T06:54:10;99790.00;;;21.52;45.05
76132;BME280;64877;50.994;13.650;2023-05-14T06:56:36;99781.88;;;21.59;44.34
76132;BME280;64877;50.994;13.650;2023-05-14T06:59:01;99778.97;;;21.75;43.72
76132;BME280;64877;50.994;13.650;2023-05-14T07:01:27;99774.31;;;21.90;43.84
76132;BME280;64877;50.994;13.650;2023-05-14T07:03:52;99784.28;;;21.91;43.05
76132;BME280;64877;50.994;13.650;2023-05-14T07:06:18;99770.31;;;22.08;42.39
76132;BME280;64877;50.994;13.650;2023-05-14T07:08:43;99773.66;;;21.88;43.18
76132;BME280;64877;50.994;13.650;2023-05-14T07:11:11;99771.09;;;22.16;42.78
76132;BME280;64877;50.994;13.650;2023-05-14T07:13:40;99770.97;;;22.90;41.99
76132;BME280;64877;50.994;13.650;2023-05-14T07:16:06;99766.25;;;22.69;42.13
76132;BME280;64877;50.994;13.650;2023-05-14T07:18:34;99772.34;;;23.51;39.78
76132;BME280;64877;50.994;13.650;2023-05-14T07:20:59;99766.78;;;23.65;38.17
76132;BME280;64877;50.994;13.650;2023-05-14T07:23:24;99766.13;;;23.42;38.37
76132;BME280;64877;50.994;13.650;2023-05-14T07:25:50;99761.50;;;23.42;38.19
76132;BME280;64877;50.994;13.650;2023-05-14T07:28:15;99762.28;;;24.34;38.04
76132;BME280;64877;50.994;13.650;2023-05-14T07:30:41;99757.16;;;24.85;36.22
76132;BME280;64877;50.994;13.650;2023-05-14T07:33:06;99742.72;;;24.83;35.90
76132;BME280;64877;50.994;13.650;2023-05-14T07:35:31;99741.28;;;25.14;35.36
76132;BME280;64877;50.994;13.650;2023-05-14T07:37:57;99742.88;;;26.21;33.82
76132;BME280;64877;50.994;13.650;2023-05-14T07:40:22;99741.47;;;29.99;28.47
76132;BME280;64877;50.994;13.650;2023-05-14T07:42:49;99745.31;;;31.64;25.46
76132;BME280;64877;50.994;13.650;2023-05-14T07:45:14;99740.22;;;33.04;24.28
76132;BME280;64877;50.994;13.650;2023-05-14T07:47:40;99728.69;;;33.65;23.24
76132;BME280;64877;50.994;13.650;2023-05-14T07:50:06;99724.66;;;35.34;21.18
76132;BME280;64877;50.994;13.650;2023-05-14T07:52:31;99719.28;;;35.83;20.58
76132;BME280;64877;50.994;13.650;2023-05-14T07:54:57;99715.34;;;35.89;20.14
76132;BME280;64877;50.994;13.650;2023-05-14T07:57:22;99718.03;;;37.00;19.04
76132;BME280;64877;50.994;13.650;2023-05-14T07:59:48;99719.50;;;36.22;19.40
76132;BME280;64877;50.994;13.650;2023-05-14T08:02:13;99721.72;;;36.36;19.59
76132;BME280;64877;50.994;13.650;2023-05-14T08:04:40;99706.34;;;34.17;21.68
76132;BME280;64877;50.994;13.650;2023-05-14T08:07:06;99710.13;;;33.54;21.95
76132;BME280;64877;50.994;13.650;2023-05-14T08:09:33;99714.66;;;34.55;21.57
76132;BME280;64877;50.994;13.650;2023-05-14T08:11:58;99710.03;;;34.96;20.46
76132;BME280;64877;50.994;13.650;2023-05-14T08:14:23;99712.84;;;34.28;21.26
76132;BME280;64877;50.994;13.650;2023-05-14T08:16:49;99705.84;;;33.83;22.04
76132;BME280;64877;50.994;13.650;2023-05-14T08:19:14;99706.09;;;34.97;20.31
76132;BME280;64877;50.994;13.650;2023-05-14T08:21:40;99698.81;;;35.37;20.62
76132;BME280;64877;50.994;13.650;2023-05-14T08:24:05;99719.81;;;29.77;26.04
76132;BME280;64877;50.994;13.650;2023-05-14T08:26:31;99727.28;;;27.10;29.93
76132;BME280;64877;50.994;13.650;2023-05-14T08:28:56;99726.44;;;24.40;33.84
76132;BME280;64877;50.994;13.650;2023-05-14T08:31:22;99728.25;;;23.79;36.38
76132;BME280;64877;50.994;13.650;2023-05-14T08:33:47;99724.88;;;25.06;33.40
76132;BME280;64877;50.994;13.650;2023-05-14T08:36:12;99722.59;;;25.29;32.06
76132;BME280;64877;50.994;13.650;2023-05-14T08:38:38;99726.47;;;23.64;33.80
76132;BME280;64877;50.994;13.650;2023-05-14T08:41:05;99729.34;;;23.07;35.67
76132;BME280;64877;50.994;13.650;2023-05-14T08:46:16;99719.56;;;22.98;36.36
76132;BME280;64877;50.994;13.650;2023-05-14T08:48:42;99734.63;;;22.44;36.29
76132;BME280;64877;50.994;13.650;2023-05-14T08:51:11;99735.59;;;22.07;36.20
76132;BME280;64877;50.994;13.650;2023-05-14T08:53:37;99727.28;;;21.85;37.49
76132;BME280;64877;50.994;13.650;2023-05-14T08:56:05;99724.53;;;21.85;38.37
76132;BME280;64877;50.994;13.650;2023-05-14T08:58:32;99718.94;;;21.93;37.90
76132;BME280;64877;50.994;13.650;2023-05-14T09:00:57;99729.19;;;21.85;38.64
76132;BME280;64877;50.994;13.650;2023-05-14T09:03:23;99724.81;;;21.46;39.62
76132;BME280;64877;50.994;13.650;2023-05-14T09:05:49;99721.78;;;21.18;40.63
76132;BME280;64877;50.994;13.650;2023-05-14T09:08:16;99728.09;;;20.58;41.29
76132;BME280;64877;50.994;13.650;2023-05-14T09:10:41;99724.59;;;20.41;42.09
76132;BME280;64877;50.994;13.650;2023-05-14T09:13:07;99731.81;;;20.03;42.84
76132;BME280;64877;50.994;13.650;2023-05-14T09:15:36;99733.25;;;19.82;43.25
76132;BME280;64877;50.994;13.650;2023-05-14T09:18:04;99729.53;;;19.59;43.74
76132;BME280;64877;50.994;13.650;2023-05-14T09:20:30;99728.88;;;19.49;43.75
76132;BME280;64877;50.994;13.650;2023-05-14T09:22:57;99725.47;;;19.47;43.91
76132;BME280;64877;50.994;13.650;2023-05-14T09:25:30;99728.53;;;19.52;44.10
76132;BME280;64877;50.994;13.650;2023-05-14T09:27:56;99724.28;;;19.49;45.18
76132;BME280;64877;50.994;13.650;2023-05-14T09:30:23;99720.69;;;19.41;45.13
76132;BME280;64877;50.994;13.650;2023-05-14T09:32:52;99719.84;;;19.32;45.24
76132;BME280;64877;50.994;13.650;2023-05-14T09:35:19;99705.22;;;19.64;44.72
76132;BME280;64877;50.994;13.650;2023-05-14T09:37:50;99707.97;;;19.64;44.77
76132;BME280;64877;50.994;13.650;2023-05-14T09:40:17;99696.66;;;19.59;44.70
76132;BME280;64877;50.994;13.650;2023-05-14T09:42:43;99691.19;;;19.67;44.96
76132;BME280;64877;50.994;13.650;2023-05-14T09:45:09;99690.13;;;19.68;44.64
76132;BME280;64877;50.994;13.650;2023-05-14T09:47:35;99685.25;;;19.95;44.48
76132;BME280;64877;50.994;13.650;2023-05-14T09:50:01;99683.47;;;20.33;43.63
76132;BME280;64877;50.994;13.650;2023-05-14T09:52:27;99672.06;;;20.52;43.16
76132;BME280;64877;50.994;13.650;2023-05-14T09:54:52;99666.38;;;20.77;42.46
76132;BME280;64877;50.994;13.650;2023-05-14T09:57:18;99663.94;;;20.82;43.28
76132;BME280;64877;50.994;13.650;2023-05-14T09:59:44;99655.38;;;21.00;42.19
76132;BME280;64877;50.994;13.650;2023-05-14T10:02:21;99657.78;;;20.80;42.18
76132;BME280;64877;50.994;13.650;2023-05-14T10:04:49;99659.28;;;20.82;41.78
76132;BME280;64877;50.994;13.650;2023-05-14T10:07:18;99651.78;;;20.99;41.35
76132;BME280;64877;50.994;13.650;2023-05-14T10:09:46;99646.34;;;20.91;41.04
76132;BME280;64877;50.994;13.650;2023-05-14T10:12:14;99643.69;;;20.98;41.12
76132;BME280;64877;50.994;13.650;2023-05-14T10:14:46;99641.94;;;21.05;40.40
76132;BME280;64877;50.994;13.650;2023-05-14T10:17:13;99632.88;;;20.81;41.33
76132;BME280;64877;50.994;13.650;2023-05-14T10:19:46;99642.16;;;20.80;41.24
76132;BME280;64877;50.994;13.650;2023-05-14T10:22:16;99639.28;;;20.59;41.71
76132;BME280;64877;50.994;13.650;2023-05-14T10:24:44;99623.69;;;20.74;41.74
76132;BME280;64877;50.994;13.650;2023-05-14T10:27:10;99633.63;;;20.52;41.38
76132;BME280;64877;50.994;13.650;2023-05-14T10:29:36;99631.97;;;20.20;41.72
76132;BME280;64877;50.994;13.650;2023-05-14T10:32:06;99626.41;;;20.05;42.49
76132;BME280;64877;50.994;13.650;2023-05-14T10:34:33;99632.84;;;19.90;42.28
76132;BME280;64877;50.994;13.650;2023-05-14T10:37:03;99624.38;;;19.68;43.12
76132;BME280;64877;50.994;13.650;2023-05-14T10:39:57;99626.03;;;19.77;43.90
76132;BME280;64877;50.994;13.650;2023-05-14T10:42:24;99630.53;;;19.70;44.25
76132;BME280;64877;50.994;13.650;2023-05-14T10:44:55;99626.31;;;19.59;44.47
76132;BME280;64877;50.994;13.650;2023-05-14T10:47:23;99629.84;;;19.68;44.64
76132;BME280;64877;50.994;13.650;2023-05-14T10:49:52;99623.41;;;19.61;43.34
76132;BME280;64877;50.994;13.650;2023-05-14T10:52:19;99623.97;;;19.40;42.82
76132;BME280;64877;50.994;13.650;2023-05-14T10:54:53;99620.00;;;19.43;42.70
76132;BME280;64877;50.994;13.650;2023-05-14T10:57:20;99625.03;;;19.23;43.71
76132;BME280;64877;50.994;13.650;2023-05-14T10:59:49;99617.44;;;19.41;43.74
76132;BME280;64877;50.994;13.650;2023-05-14T11:02:29;99620.84;;;19.51;41.65
76132;BME280;64877;50.994;13.650;2023-05-14T11:05:15;99612.75;;;19.58;41.89
76132;BME280;64877;50.994;13.650;2023-05-14T11:07:46;99606.09;;;19.52;42.73
76132;BME280;64877;50.994;13.650;2023-05-14T11:10:19;99597.75;;;19.85;42.07
76132;BME280;64877;50.994;13.650;2023-05-14T11:12:46;99602.09;;;19.71;42.42
76132;BME280;64877;50.994;13.650;2023-05-14T11:15:13;99593.97;;;19.86;42.32
76132;BME280;64877;50.994;13.650;2023-05-14T11:17:42;99591.03;;;19.87;44.91
76132;BME280;64877;50.994;13.650;2023-05-14T11:20:07;99594.53;;;19.73;46.25
76132;BME280;64877;50.994;13.650;2023-05-14T11:22:34;99591.78;;;19.81;45.18
76132;BME280;64877;50.994;13.650;2023-05-14T11:25:00;99595.09;;;20.00;44.51
76132;BME280;64877;50.994;13.650;2023-05-14T11:27:25;99587.06;;;20.21;43.74
76132;BME280;64877;50.994;13.650;2023-05-14T11:29:51;99579.38;;;20.39;42.34
76132;BME280;64877;50.994;13.650;2023-05-14T11:32:18;99574.53;;;20.42;42.41
76132;BME280;64877;50.994;13.650;2023-05-14T11:34:44;99578.97;;;20.43;43.17
76132;BME280;64877;50.994;13.650;2023-05-14T11:37:10;99570.38;;;20.54;43.41
76132;BME280;64877;50.994;13.650;2023-05-14T11:39:36;99571.63;;;20.81;43.03
76132;BME280;64877;50.994;13.650;2023-05-14T11:42:10;99559.41;;;20.83;42.91
76132;BME280;64877;50.994;13.650;2023-05-14T11:44:41;99559.53;;;20.90;41.41
76132;BME280;64877;50.994;13.650;2023-05-14T11:47:08;99565.09;;;20.97;41.45
76132;BME280;64877;50.994;13.650;2023-05-14T11:49:34;99564.03;;;20.83;41.64
76132;BME280;64877;50.994;13.650;2023-05-14T11:52:02;99558.75;;;20.81;40.86
76132;BME280;64877;50.994;13.650;2023-05-14T11:54:28;99561.47;;;20.67;41.29
76132;BME280;64877;50.994;13.650;2023-05-14T11:56:55;99557.53;;;20.69;41.00
76132;BME280;64877;50.994;13.650;2023-05-14T11:59:23;99559.59;;;20.67;40.98
76132;BME280;64877;50.994;13.650;2023-05-14T12:01:49;99556.94;;;20.59;40.33
76132;BME280;64877;50.994;13.650;2023-05-14T12:04:19;99553.50;;;20.57;40.98
76132;BME280;64877;50.994;13.650;2023-05-14T12:06:48;99548.09;;;20.26;42.04
76132;BME280;64877;50.994;13.650;2023-05-14T12:09:20;99548.81;;;20.43;41.41
76132;BME280;64877;50.994;13.650;2023-05-14T12:11:47;99546.69;;;20.53;41.71
76132;BME280;64877;50.994;13.650;2023-05-14T12:14:21;99543.22;;;20.36;42.09
76132;BME280;64877;50.994;13.650;2023-05-14T12:16:47;99540.53;;;20.28;42.07
76132;BME280;64877;50.994;13.650;2023-05-14T12:19:14;99538.16;;;20.48;42.53
76132;BME280;64877;50.994;13.650;2023-05-14T12:21:41;99536.00;;;20.58;41.60
76132;BME280;64877;50.994;13.650;2023-05-14T12:24:17;99528.09;;;20.40;41.65
76132;BME280;64877;50.994;13.650;2023-05-14T12:26:47;99521.06;;;20.37;41.57
76132;BME280;64877;50.994;13.650;2023-05-14T12:29:14;99534.03;;;20.29;41.47
76132;BME280;64877;50.994;13.650;2023-05-14T12:31:47;99528.53;;;20.29;40.78
76132;BME280;64877;50.994;13.650;2023-05-14T12:34:13;99514.78;;;20.14;41.85
76132;BME280;64877;50.994;13.650;2023-05-14T12:36:38;99512.84;;;20.00;41.65
76132;BME280;64877;50.994;13.650;2023-05-14T12:39:04;99515.88;;;20.05;41.83
76132;BME280;64877;50.994;13.650;2023-05-14T12:41:30;99516.03;;;20.03;42.81
76132;BME280;64877;50.994;13.650;2023-05-14T12:43:56;99505.44;;;20.23;42.52
76132;BME280;64877;50.994;13.650;2023-05-14T12:46:22;99507.00;;;20.40;42.34
76132;BME280;64877;50.994;13.650;2023-05-14T12:48:48;99503.84;;;20.44;42.27
76132;BME280;64877;50.994;13.650;2023-05-14T12:51:14;99508.13;;;20.69;41.56
76132;BME280;64877;50.994;13.650;2023-05-14T12:53:39;99497.50;;;20.66;42.07
76132;BME280;64877;50.994;13.650;2023-05-14T12:56:05;99489.19;;;20.74;41.14
76132;BME280;64877;50.994;13.650;2023-05-14T12:58:31;99490.19;;;20.73;41.37
76132;BME280;64877;50.994;13.650;2023-05-14T13:00:56;99501.47;;;20.78;40.92